This is the latest recevied weather packets stored in our database for station/object KF6RAL-6. If no packets are shown the sender has not sent any weather packets the latest 10 day(s).
| Time | Temp. | Humidity | Pressure | Rain* | Wind** | Luminosity | Snow |
|---|---|---|---|---|---|---|---|
| 1787894315 | 25.56° C | 48% | 1016.8 hPa | 0 mm | - | - | - |
| 1787893894 | 25.56° C | 48% | 1016.6 hPa | 0 mm | - | - | - |
| 1787893479 | 26.11° C | 47% | 1016.3 hPa | 0 mm | - | - | - |
| 1787893052 | 26.67° C | 43% | 1016.7 hPa | 0 mm | - | - | - |
| 1787892631 | 26.67° C | 41% | 1017.4 hPa | 0 mm | - | - | - |
| 1787892209 | 26.11° C | 43% | 1017.9 hPa | 0 mm | - | - | - |
| 1787891788 | 26.11° C | 44% | 1018.5 hPa | 0 mm | - | - | - |
| 1787891367 | 25.56° C | 46% | 1019.2 hPa | 0 mm | - | - | - |
| 1787890946 | 27.22° C | 41% | 1019.1 hPa | 0 mm | - | - | - |
| 1787890525 | 27.22° C | 39% | 1019.5 hPa | 0 mm | - | - | - |
| 1787890104 | 26.67° C | 41% | 1019.5 hPa | 0 mm | - | - | - |
| 1787889683 | 27.22° C | 41% | 1019.6 hPa | 0 mm | - | - | - |
| 1787889262 | 26.67° C | 43% | 1019.5 hPa | 0 mm | - | - | - |
| 1787888843 | 25.56° C | 48% | 1018.2 hPa | 0 mm | - | - | - |
| 1787888420 | 25.56° C | 51% | 1018.3 hPa | 0 mm | - | - | - |
| 1787887999 | 26.11° C | 51% | 1018.4 hPa | 0 mm | - | - | - |
| 1787887157 | 27.78° C | 46% | 1015.9 hPa | 0 mm | - | - | - |
| 1787886736 | 30.56° C | 37% | 1016.4 hPa | 0 mm | - | - | - |
| 1787886315 | 31.11° C | 28% | 1015.2 hPa | 0 mm | - | - | - |
| 1787885894 | 31.11° C | 28% | 1015 hPa | 0 mm | - | - | - |
| 1787885052 | 30.56° C | 30% | 1014 hPa | 0 mm | - | - | - |
| 1787884633 | 30.56° C | 30% | 1013.9 hPa | 0 mm | - | - | - |
| 1787884210 | 30.56° C | 30% | 1013.8 hPa | 0 mm | - | - | - |
| 1787883789 | 31.11° C | 30% | 1014.5 hPa | 0 mm | - | - | - |
| 1787883368 | 31.11° C | 28% | 1013.9 hPa | 0 mm | - | - | - |
* Rain latest hour (hover to see other rain measurements)
** Current wind speed in m/s (hover to see current wind gust speed)